sensor_id;sensor_type;location;lat;lon;timestamp;temperature;humidity
36444;DHT22;24692;45.642;13.806;2023-03-01T00:01:06;5.50;99.90
36444;DHT22;24692;45.642;13.806;2023-03-01T00:03:33;5.60;99.90
36444;DHT22;24692;45.642;13.806;2023-03-01T00:06:00;5.70;99.90
36444;DHT22;24692;45.642;13.806;2023-03-01T00:08:26;5.50;99.90
36444;DHT22;24692;45.642;13.806;2023-03-01T00:11:10;5.40;99.90
36444;DHT22;24692;45.642;13.806;2023-03-01T00:13:37;5.60;99.90
36444;DHT22;24692;45.642;13.806;2023-03-01T00:16:09;5.60;99.90
36444;DHT22;24692;45.642;13.806;2023-03-01T00:18:36;5.50;99.90
36444;DHT22;24692;45.642;13.806;2023-03-01T00:21:02;5.50;99.90
36444;DHT22;24692;45.642;13.806;2023-03-01T00:23:27;5.60;99.90
36444;DHT22;24692;45.642;13.806;2023-03-01T00:25:54;5.60;99.90
36444;DHT22;24692;45.642;13.806;2023-03-01T00:28:20;5.40;99.90
36444;DHT22;24692;45.642;13.806;2023-03-01T00:30:46;5.40;99.90
36444;DHT22;24692;45.642;13.806;2023-03-01T00:33:12;5.50;99.90
36444;DHT22;24692;45.642;13.806;2023-03-01T00:35:39;5.40;99.90
36444;DHT22;24692;45.642;13.806;2023-03-01T00:38:05;5.40;99.90
36444;DHT22;24692;45.642;13.806;2023-03-01T00:40:33;5.40;99.90
36444;DHT22;24692;45.642;13.806;2023-03-01T00:42:59;5.40;99.90
36444;DHT22;24692;45.642;13.806;2023-03-01T00:45:24;5.50;99.90
36444;DHT22;24692;45.642;13.806;2023-03-01T00:47:50;5.50;99.90
36444;DHT22;24692;45.642;13.806;2023-03-01T00:50:17;5.50;99.90
36444;DHT22;24692;45.642;13.806;2023-03-01T00:52:43;5.50;99.90
36444;DHT22;24692;45.642;13.806;2023-03-01T00:55:09;5.50;99.90
36444;DHT22;24692;45.642;13.806;2023-03-01T00:57:35;5.40;99.90
36444;DHT22;24692;45.642;13.806;2023-03-01T01:00:00;5.50;99.90
36444;DHT22;24692;45.642;13.806;2023-03-01T01:02:26;5.50;99.90
36444;DHT22;24692;45.642;13.806;2023-03-01T01:04:52;5.60;99.90
36444;DHT22;24692;45.642;13.806;2023-03-01T01:07:18;5.70;99.90
36444;DHT22;24692;45.642;13.806;2023-03-01T01:09:45;5.60;99.90
36444;DHT22;24692;45.642;13.806;2023-03-01T01:12:11;5.50;99.90
36444;DHT22;24692;45.642;13.806;2023-03-01T01:14:37;5.60;99.90
36444;DHT22;24692;45.642;13.806;2023-03-01T01:17:03;5.50;99.90
36444;DHT22;24692;45.642;13.806;2023-03-01T01:19:29;5.40;99.90
36444;DHT22;24692;45.642;13.806;2023-03-01T01:21:55;5.40;99.90
36444;DHT22;24692;45.642;13.806;2023-03-01T01:24:21;5.50;99.90
36444;DHT22;24692;45.642;13.806;2023-03-01T01:26:46;5.50;99.90
36444;DHT22;24692;45.642;13.806;2023-03-01T01:29:12;5.40;99.90
36444;DHT22;24692;45.642;13.806;2023-03-01T01:31:39;5.50;99.90
36444;DHT22;24692;45.642;13.806;2023-03-01T01:34:08;5.50;99.90
36444;DHT22;24692;45.642;13.806;2023-03-01T01:36:34;5.60;99.90
36444;DHT22;24692;45.642;13.806;2023-03-01T01:39:00;5.60;99.90
36444;DHT22;24692;45.642;13.806;2023-03-01T01:41:27;5.60;99.90
36444;DHT22;24692;45.642;13.806;2023-03-01T01:44:19;5.60;99.90
36444;DHT22;24692;45.642;13.806;2023-03-01T01:52:14;5.60;99.90
36444;DHT22;24692;45.642;13.806;2023-03-01T01:54:51;5.70;99.90
36444;DHT22;24692;45.642;13.806;2023-03-01T01:57:21;5.60;99.90
36444;DHT22;24692;45.642;13.806;2023-03-01T01:59:53;5.70;99.90
36444;DHT22;24692;45.642;13.806;2023-03-01T02:02:20;5.60;99.90
36444;DHT22;24692;45.642;13.806;2023-03-01T02:04:48;5.70;99.90
36444;DHT22;24692;45.642;13.806;2023-03-01T02:07:21;5.70;99.90
36444;DHT22;24692;45.642;13.806;2023-03-01T02:09:50;5.70;99.90
36444;DHT22;24692;45.642;13.806;2023-03-01T02:12:19;5.70;99.90
36444;DHT22;24692;45.642;13.806;2023-03-01T02:14:45;5.80;99.90
36444;DHT22;24692;45.642;13.806;2023-03-01T02:17:12;5.80;99.90
36444;DHT22;24692;45.642;13.806;2023-03-01T02:19:52;5.90;99.90
36444;DHT22;24692;45.642;13.806;2023-03-01T02:22:30;5.90;99.90
36444;DHT22;24692;45.642;13.806;2023-03-01T02:25:06;5.70;99.90
36444;DHT22;24692;45.642;13.806;2023-03-01T02:27:41;5.70;99.90
36444;DHT22;24692;45.642;13.806;2023-03-01T02:30:11;5.70;99.90
36444;DHT22;24692;45.642;13.806;2023-03-01T02:32:40;5.80;99.90
36444;DHT22;24692;45.642;13.806;2023-03-01T02:35:10;5.60;99.90
36444;DHT22;24692;45.642;13.806;2023-03-01T02:37:37;5.60;99.90
36444;DHT22;24692;45.642;13.806;2023-03-01T02:40:06;5.70;99.90
36444;DHT22;24692;45.642;13.806;2023-03-01T02:42:41;5.80;99.90
36444;DHT22;24692;45.642;13.806;2023-03-01T02:45:09;5.80;99.90
36444;DHT22;24692;45.642;13.806;2023-03-01T02:47:36;5.80;99.90
36444;DHT22;24692;45.642;13.806;2023-03-01T02:50:01;5.70;99.90
36444;DHT22;24692;45.642;13.806;2023-03-01T02:55:10;5.90;99.90
36444;DHT22;24692;45.642;13.806;2023-03-01T02:57:39;5.90;99.90
36444;DHT22;24692;45.642;13.806;2023-03-01T03:00:09;5.90;99.90
36444;DHT22;24692;45.642;13.806;2023-03-01T03:02:36;6.00;99.90
36444;DHT22;24692;45.642;13.806;2023-03-01T03:07:35;6.00;99.90
36444;DHT22;24692;45.642;13.806;2023-03-01T03:10:03;5.80;99.90
36444;DHT22;24692;45.642;13.806;2023-03-01T03:12:29;5.90;99.90
36444;DHT22;24692;45.642;13.806;2023-03-01T03:14:54;5.90;99.90
36444;DHT22;24692;45.642;13.806;2023-03-01T03:17:20;6.00;99.90
36444;DHT22;24692;45.642;13.806;2023-03-01T03:19:46;6.10;99.90
36444;DHT22;24692;45.642;13.806;2023-03-01T03:22:12;6.20;99.90
36444;DHT22;24692;45.642;13.806;2023-03-01T03:24:38;6.20;99.90
36444;DHT22;24692;45.642;13.806;2023-03-01T03:27:04;6.10;99.90
36444;DHT22;24692;45.642;13.806;2023-03-01T03:29:31;6.20;99.90
36444;DHT22;24692;45.642;13.806;2023-03-01T03:31:56;6.30;99.90
36444;DHT22;24692;45.642;13.806;2023-03-01T03:34:22;6.10;99.90
36444;DHT22;24692;45.642;13.806;2023-03-01T03:36:53;6.00;99.90
36444;DHT22;24692;45.642;13.806;2023-03-01T03:39:23;6.00;99.90
36444;DHT22;24692;45.642;13.806;2023-03-01T03:41:48;6.10;99.90
36444;DHT22;24692;45.642;13.806;2023-03-01T03:44:14;6.20;99.90
36444;DHT22;24692;45.642;13.806;2023-03-01T03:46:39;6.10;99.90
36444;DHT22;24692;45.642;13.806;2023-03-01T03:49:05;6.10;99.90
36444;DHT22;24692;45.642;13.806;2023-03-01T03:51:31;6.10;99.90
36444;DHT22;24692;45.642;13.806;2023-03-01T03:53:56;6.10;99.90
36444;DHT22;24692;45.642;13.806;2023-03-01T03:56:22;6.10;99.90
36444;DHT22;24692;45.642;13.806;2023-03-01T03:58:54;6.00;99.90
36444;DHT22;24692;45.642;13.806;2023-03-01T04:01:19;6.00;99.90
36444;DHT22;24692;45.642;13.806;2023-03-01T04:03:45;6.10;99.90
36444;DHT22;24692;45.642;13.806;2023-03-01T04:06:13;6.20;99.90
36444;DHT22;24692;45.642;13.806;2023-03-01T04:08:39;6.10;99.90
36444;DHT22;24692;45.642;13.806;2023-03-01T04:11:05;6.20;99.90
36444;DHT22;24692;45.642;13.806;2023-03-01T04:13:51;6.10;99.90
36444;DHT22;24692;45.642;13.806;2023-03-01T04:16:17;6.20;99.90
36444;DHT22;24692;45.642;13.806;2023-03-01T04:18:43;6.20;99.90
36444;DHT22;24692;45.642;13.806;2023-03-01T04:21:09;6.10;99.90
36444;DHT22;24692;45.642;13.806;2023-03-01T04:23:36;6.00;99.90
36444;DHT22;24692;45.642;13.806;2023-03-01T04:26:02;6.00;99.90
36444;DHT22;24692;45.642;13.806;2023-03-01T04:28:31;6.10;99.90
36444;DHT22;24692;45.642;13.806;2023-03-01T04:31:19;6.20;99.90
36444;DHT22;24692;45.642;13.806;2023-03-01T04:33:54;6.20;99.90
36444;DHT22;24692;45.642;13.806;2023-03-01T04:36:25;6.00;99.90
36444;DHT22;24692;45.642;13.806;2023-03-01T04:38:52;6.20;99.90
36444;DHT22;24692;45.642;13.806;2023-03-01T04:41:20;6.20;99.90
36444;DHT22;24692;45.642;13.806;2023-03-01T04:43:46;6.20;99.90
36444;DHT22;24692;45.642;13.806;2023-03-01T04:46:15;6.10;99.90
36444;DHT22;24692;45.642;13.806;2023-03-01T04:48:42;6.20;99.90
36444;DHT22;24692;45.642;13.806;2023-03-01T04:51:08;6.40;99.90
36444;DHT22;24692;45.642;13.806;2023-03-01T04:53:35;6.30;99.90
36444;DHT22;24692;45.642;13.806;2023-03-01T04:56:04;6.20;99.90
36444;DHT22;24692;45.642;13.806;2023-03-01T04:58:30;6.30;99.90
36444;DHT22;24692;45.642;13.806;2023-03-01T05:00:56;6.30;99.90
36444;DHT22;24692;45.642;13.806;2023-03-01T05:03:22;6.40;99.90
36444;DHT22;24692;45.642;13.806;2023-03-01T05:05:50;6.50;99.90
36444;DHT22;24692;45.642;13.806;2023-03-01T05:08:16;6.20;99.90
36444;DHT22;24692;45.642;13.806;2023-03-01T05:10:49;6.00;99.90
36444;DHT22;24692;45.642;13.806;2023-03-01T05:13:15;6.10;99.90
36444;DHT22;24692;45.642;13.806;2023-03-01T05:15:48;6.10;99.90
36444;DHT22;24692;45.642;13.806;2023-03-01T05:18:14;6.10;99.90
36444;DHT22;24692;45.642;13.806;2023-03-01T05:20:40;6.10;99.90
36444;DHT22;24692;45.642;13.806;2023-03-01T05:23:06;6.10;99.90
36444;DHT22;24692;45.642;13.806;2023-03-01T05:25:35;6.10;99.90
36444;DHT22;24692;45.642;13.806;2023-03-01T05:28:07;6.20;99.90
36444;DHT22;24692;45.642;13.806;2023-03-01T05:30:34;6.30;99.90
36444;DHT22;24692;45.642;13.806;2023-03-01T05:33:00;6.20;99.90
36444;DHT22;24692;45.642;13.806;2023-03-01T05:35:26;6.20;99.90
36444;DHT22;24692;45.642;13.806;2023-03-01T05:37:52;5.90;99.90
36444;DHT22;24692;45.642;13.806;2023-03-01T05:40:20;5.90;99.90
36444;DHT22;24692;45.642;13.806;2023-03-01T05:42:48;5.90;99.90
36444;DHT22;24692;45.642;13.806;2023-03-01T05:45:16;5.80;99.90
36444;DHT22;24692;45.642;13.806;2023-03-01T05:47:44;6.00;99.90
36444;DHT22;24692;45.642;13.806;2023-03-01T05:52:37;6.00;99.90
36444;DHT22;24692;45.642;13.806;2023-03-01T05:55:03;5.90;99.90
36444;DHT22;24692;45.642;13.806;2023-03-01T05:57:29;5.90;99.90
36444;DHT22;24692;45.642;13.806;2023-03-01T05:59:55;5.90;99.90
36444;DHT22;24692;45.642;13.806;2023-03-01T06:02:20;5.90;99.90
36444;DHT22;24692;45.642;13.806;2023-03-01T06:04:46;5.90;99.90
36444;DHT22;24692;45.642;13.806;2023-03-01T06:07:13;6.00;99.90
36444;DHT22;24692;45.642;13.806;2023-03-01T06:09:44;6.00;99.90
36444;DHT22;24692;45.642;13.806;2023-03-01T06:12:12;6.10;99.90
36444;DHT22;24692;45.642;13.806;2023-03-01T06:14:38;6.30;99.90
36444;DHT22;24692;45.642;13.806;2023-03-01T06:17:06;6.30;99.90
36444;DHT22;24692;45.642;13.806;2023-03-01T06:19:36;6.20;99.90
36444;DHT22;24692;45.642;13.806;2023-03-01T06:22:03;6.20;99.90
36444;DHT22;24692;45.642;13.806;2023-03-01T06:24:30;6.30;99.90
36444;DHT22;24692;45.642;13.806;2023-03-01T06:26:56;6.40;99.90
36444;DHT22;24692;45.642;13.806;2023-03-01T06:29:23;6.40;99.90
36444;DHT22;24692;45.642;13.806;2023-03-01T06:31:51;6.30;99.90
36444;DHT22;24692;45.642;13.806;2023-03-01T06:34:27;6.40;99.90
36444;DHT22;24692;45.642;13.806;2023-03-01T06:36:53;6.50;99.90
36444;DHT22;24692;45.642;13.806;2023-03-01T06:39:19;6.40;99.90
36444;DHT22;24692;45.642;13.806;2023-03-01T06:41:45;6.40;99.90
36444;DHT22;24692;45.642;13.806;2023-03-01T06:44:11;6.20;99.90
36444;DHT22;24692;45.642;13.806;2023-03-01T06:46:39;6.30;99.90
36444;DHT22;24692;45.642;13.806;2023-03-01T06:49:07;6.40;99.90
36444;DHT22;24692;45.642;13.806;2023-03-01T06:51:37;6.40;99.90
36444;DHT22;24692;45.642;13.806;2023-03-01T06:54:13;6.50;99.90
36444;DHT22;24692;45.642;13.806;2023-03-01T06:56:48;6.80;99.90
36444;DHT22;24692;45.642;13.806;2023-03-01T06:59:16;7.00;99.90
36444;DHT22;24692;45.642;13.806;2023-03-01T07:01:42;7.10;99.90
36444;DHT22;24692;45.642;13.806;2023-03-01T07:04:12;7.00;99.90
36444;DHT22;24692;45.642;13.806;2023-03-01T07:06:37;7.00;99.90
36444;DHT22;24692;45.642;13.806;2023-03-01T07:09:05;6.80;99.90
36444;DHT22;24692;45.642;13.806;2023-03-01T07:11:35;6.60;99.90
36444;DHT22;24692;45.642;13.806;2023-03-01T07:14:01;6.40;99.90
36444;DHT22;24692;45.642;13.806;2023-03-01T07:16:27;6.60;99.90
36444;DHT22;24692;45.642;13.806;2023-03-01T07:18:54;6.60;99.90
36444;DHT22;24692;45.642;13.806;2023-03-01T07:21:21;7.10;99.90
36444;DHT22;24692;45.642;13.806;2023-03-01T07:23:49;7.80;99.90
36444;DHT22;24692;45.642;13.806;2023-03-01T07:26:18;7.70;99.90
36444;DHT22;24692;45.642;13.806;2023-03-01T07:28:45;7.40;99.90
36444;DHT22;24692;45.642;13.806;2023-03-01T07:31:12;7.20;99.90
36444;DHT22;24692;45.642;13.806;2023-03-01T07:33:39;7.30;99.90
36444;DHT22;24692;45.642;13.806;2023-03-01T07:36:07;7.70;99.90
36444;DHT22;24692;45.642;13.806;2023-03-01T07:38:34;8.50;99.90
36444;DHT22;24692;45.642;13.806;2023-03-01T07:41:02;8.30;99.90
36444;DHT22;24692;45.642;13.806;2023-03-01T07:43:30;8.40;99.90
36444;DHT22;24692;45.642;13.806;2023-03-01T07:45:59;8.90;99.90
36444;DHT22;24692;45.642;13.806;2023-03-01T07:48:25;8.70;99.90
36444;DHT22;24692;45.642;13.806;2023-03-01T07:50:51;8.20;99.90
36444;DHT22;24692;45.642;13.806;2023-03-01T07:53:17;7.80;99.90
36444;DHT22;24692;45.642;13.806;2023-03-01T07:55:42;7.70;99.90
36444;DHT22;24692;45.642;13.806;2023-03-01T07:58:08;7.50;99.90
36444;DHT22;24692;45.642;13.806;2023-03-01T08:00:34;7.40;99.90
36444;DHT22;24692;45.642;13.806;2023-03-01T08:03:00;7.30;99.90
36444;DHT22;24692;45.642;13.806;2023-03-01T08:05:26;7.10;99.90
36444;DHT22;24692;45.642;13.806;2023-03-01T08:07:53;7.20;99.90
36444;DHT22;24692;45.642;13.806;2023-03-01T08:10:19;7.80;99.90
36444;DHT22;24692;45.642;13.806;2023-03-01T08:12:46;9.10;99.90
36444;DHT22;24692;45.642;13.806;2023-03-01T08:15:12;9.80;99.90
36444;DHT22;24692;45.642;13.806;2023-03-01T08:17:38;9.60;99.90
36444;DHT22;24692;45.642;13.806;2023-03-01T08:20:04;9.60;99.90
36444;DHT22;24692;45.642;13.806;2023-03-01T08:22:32;9.90;99.90
36444;DHT22;24692;45.642;13.806;2023-03-01T08:24:57;10.80;99.90
36444;DHT22;24692;45.642;13.806;2023-03-01T08:27:23;11.30;99.90
36444;DHT22;24692;45.642;13.806;2023-03-01T08:29:49;12.00;99.90
36444;DHT22;24692;45.642;13.806;2023-03-01T08:32:14;12.60;99.90
36444;DHT22;24692;45.642;13.806;2023-03-01T08:34:40;12.10;99.90
36444;DHT22;24692;45.642;13.806;2023-03-01T08:37:06;11.60;99.90
36444;DHT22;24692;45.642;13.806;2023-03-01T08:39:32;11.10;99.90
36444;DHT22;24692;45.642;13.806;2023-03-01T08:41:57;11.40;99.90
36444;DHT22;24692;45.642;13.806;2023-03-01T08:44:23;10.30;99.90
36444;DHT22;24692;45.642;13.806;2023-03-01T08:46:50;10.30;99.90
36444;DHT22;24692;45.642;13.806;2023-03-01T08:49:19;10.60;99.90
36444;DHT22;24692;45.642;13.806;2023-03-01T08:51:46;10.80;99.90
36444;DHT22;24692;45.642;13.806;2023-03-01T08:54:15;10.60;99.90
36444;DHT22;24692;45.642;13.806;2023-03-01T08:56:44;11.50;99.90
36444;DHT22;24692;45.642;13.806;2023-03-01T08:59:11;12.10;99.90
36444;DHT22;24692;45.642;13.806;2023-03-01T09:01:37;12.40;99.90
36444;DHT22;24692;45.642;13.806;2023-03-01T09:04:03;11.60;99.90
36444;DHT22;24692;45.642;13.806;2023-03-01T09:06:34;9.90;99.90
36444;DHT22;24692;45.642;13.806;2023-03-01T09:09:00;11.20;99.90
36444;DHT22;24692;45.642;13.806;2023-03-01T09:11:26;12.40;99.90
36444;DHT22;24692;45.642;13.806;2023-03-01T09:13:53;12.70;99.90
36444;DHT22;24692;45.642;13.806;2023-03-01T09:16:20;12.80;99.90
36444;DHT22;24692;45.642;13.806;2023-03-01T09:18:53;12.20;99.90
36444;DHT22;24692;45.642;13.806;2023-03-01T09:21:20;12.40;99.90
36444;DHT22;24692;45.642;13.806;2023-03-01T09:23:47;11.80;99.90
36444;DHT22;24692;45.642;13.806;2023-03-01T09:26:20;12.30;99.90
36444;DHT22;24692;45.642;13.806;2023-03-01T09:28:48;12.30;99.90
36444;DHT22;24692;45.642;13.806;2023-03-01T09:31:15;11.90;99.90
36444;DHT22;24692;45.642;13.806;2023-03-01T09:33:41;12.00;99.90
36444;DHT22;24692;45.642;13.806;2023-03-01T09:36:11;11.90;99.90
36444;DHT22;24692;45.642;13.806;2023-03-01T09:38:37;12.10;99.90
36444;DHT22;24692;45.642;13.806;2023-03-01T09:41:10;12.20;99.90
36444;DHT22;24692;45.642;13.806;2023-03-01T09:43:48;11.90;99.90
36444;DHT22;24692;45.642;13.806;2023-03-01T09:46:21;11.40;99.90
36444;DHT22;24692;45.642;13.806;2023-03-01T09:49:06;11.00;99.90
36444;DHT22;24692;45.642;13.806;2023-03-01T09:51:35;9.90;99.90
36444;DHT22;24692;45.642;13.806;2023-03-01T09:54:05;9.60;99.90
36444;DHT22;24692;45.642;13.806;2023-03-01T09:56:46;9.50;99.90
36444;DHT22;24692;45.642;13.806;2023-03-01T09:59:33;9.30;99.90
36444;DHT22;24692;45.642;13.806;2023-03-01T10:02:29;8.70;99.90
36444;DHT22;24692;45.642;13.806;2023-03-01T10:10:44;8.30;99.90
36444;DHT22;24692;45.642;13.806;2023-03-01T10:13:21;8.30;99.90
36444;DHT22;24692;45.642;13.806;2023-03-01T10:15:59;7.90;99.90
36444;DHT22;24692;45.642;13.806;2023-03-01T10:18:30;8.00;99.90
36444;DHT22;24692;45.642;13.806;2023-03-01T10:21:02;7.90;99.90
36444;DHT22;24692;45.642;13.806;2023-03-01T10:23:30;7.70;99.90
36444;DHT22;24692;45.642;13.806;2023-03-01T10:26:16;7.80;99.90
36444;DHT22;24692;45.642;13.806;2023-03-01T10:29:04;8.00;99.90
36444;DHT22;24692;45.642;13.806;2023-03-01T10:31:51;8.00;99.90
36444;DHT22;24692;45.642;13.806;2023-03-01T10:34:21;8.20;99.90
36444;DHT22;24692;45.642;13.806;2023-03-01T10:36:50;8.30;99.90
36444;DHT22;24692;45.642;13.806;2023-03-01T10:39:22;8.10;99.90
36444;DHT22;24692;45.642;13.806;2023-03-01T10:41:55;7.80;99.90
36444;DHT22;24692;45.642;13.806;2023-03-01T10:44:40;7.60;99.90
36444;DHT22;24692;45.642;13.806;2023-03-01T10:47:33;7.60;99.90
36444;DHT22;24692;45.642;13.806;2023-03-01T10:50:04;7.50;99.90
36444;DHT22;24692;45.642;13.806;2023-03-01T10:52:36;7.50;99.90
36444;DHT22;24692;45.642;13.806;2023-03-01T10:55:24;7.40;99.90
36444;DHT22;24692;45.642;13.806;2023-03-01T11:00:32;7.30;99.90
36444;DHT22;24692;45.642;13.806;2023-03-01T11:05:25;7.20;99.90
36444;DHT22;24692;45.642;13.806;2023-03-01T11:07:59;7.20;99.90
36444;DHT22;24692;45.642;13.806;2023-03-01T11:10:33;7.40;99.90
36444;DHT22;24692;45.642;13.806;2023-03-01T11:13:13;7.50;99.90
36444;DHT22;24692;45.642;13.806;2023-03-01T11:15:39;7.50;99.90
36444;DHT22;24692;45.642;13.806;2023-03-01T11:18:21;7.80;99.90
36444;DHT22;24692;45.642;13.806;2023-03-01T11:20:48;8.10;99.90
36444;DHT22;24692;45.642;13.806;2023-03-01T11:23:17;8.20;99.90
36444;DHT22;24692;45.642;13.806;2023-03-01T11:26:07;8.20;99.90
36444;DHT22;24692;45.642;13.806;2023-03-01T11:28:36;8.00;99.90
36444;DHT22;24692;45.642;13.806;2023-03-01T11:31:06;7.80;99.90
36444;DHT22;24692;45.642;13.806;2023-03-01T11:38:47;7.90;99.90
36444;DHT22;24692;45.642;13.806;2023-03-01T11:54:45;7.80;99.90
36444;DHT22;24692;45.642;13.806;2023-03-01T11:57:36;7.80;99.90
36444;DHT22;24692;45.642;13.806;2023-03-01T12:03:21;8.40;99.90
36444;DHT22;24692;45.642;13.806;2023-03-01T12:08:45;8.80;99.90
36444;DHT22;24692;45.642;13.806;2023-03-01T12:28:55;8.30;99.90
36444;DHT22;24692;45.642;13.806;2023-03-01T12:42:24;8.10;99.90
36444;DHT22;24692;45.642;13.806;2023-03-01T12:48:06;7.70;99.90
36444;DHT22;24692;45.642;13.806;2023-03-01T12:50:41;7.90;99.90
36444;DHT22;24692;45.642;13.806;2023-03-01T12:53:25;8.30;99.90
36444;DHT22;24692;45.642;13.806;2023-03-01T12:55:54;8.20;99.90
36444;DHT22;24692;45.642;13.806;2023-03-01T12:59:07;8.20;99.90
36444;DHT22;24692;45.642;13.806;2023-03-01T13:07:08;8.40;99.90
36444;DHT22;24692;45.642;13.806;2023-03-01T13:09:41;8.30;99.90
36444;DHT22;24692;45.642;13.806;2023-03-01T13:31:04;7.60;99.90
36444;DHT22;24692;45.642;13.806;2023-03-01T13:36:00;8.00;99.90
36444;DHT22;24692;45.642;13.806;2023-03-01T13:41:09;7.90;99.90
36444;DHT22;24692;45.642;13.806;2023-03-01T13:43:37;8.10;99.90
36444;DHT22;24692;45.642;13.806;2023-03-01T13:46:15;7.90;99.90
36444;DHT22;24692;45.642;13.806;2023-03-01T13:48:43;7.90;99.90
36444;DHT22;24692;45.642;13.806;2023-03-01T13:51:11;7.70;99.90
36444;DHT22;24692;45.642;13.806;2023-03-01T13:53:42;7.60;99.90
36444;DHT22;24692;45.642;13.806;2023-03-01T13:56:17;7.60;99.90
36444;DHT22;24692;45.642;13.806;2023-03-01T13:59:04;7.60;99.90
36444;DHT22;24692;45.642;13.806;2023-03-01T14:01:33;7.60;99.90
36444;DHT22;24692;45.642;13.806;2023-03-01T14:04:00;7.80;99.90
36444;DHT22;24692;45.642;13.806;2023-03-01T14:06:28;7.90;99.90
36444;DHT22;24692;45.642;13.806;2023-03-01T14:09:08;8.00;99.90
36444;DHT22;24692;45.642;13.806;2023-03-01T14:19:30;7.70;99.90
36444;DHT22;24692;45.642;13.806;2023-03-01T14:24:33;7.80;99.90
36444;DHT22;24692;45.642;13.806;2023-03-01T14:27:02;7.80;99.90
36444;DHT22;24692;45.642;13.806;2023-03-01T14:29:38;7.60;99.90
36444;DHT22;24692;45.642;13.806;2023-03-01T14:32:15;7.60;99.90
36444;DHT22;24692;45.642;13.806;2023-03-01T14:34:45;7.80;99.90
36444;DHT22;24692;45.642;13.806;2023-03-01T14:39:43;7.60;99.90
36444;DHT22;24692;45.642;13.806;2023-03-01T14:42:09;7.60;99.90
36444;DHT22;24692;45.642;13.806;2023-03-01T14:44:35;7.60;99.90
36444;DHT22;24692;45.642;13.806;2023-03-01T14:47:03;7.60;99.90
36444;DHT22;24692;45.642;13.806;2023-03-01T14:49:30;7.70;99.90
36444;DHT22;24692;45.642;13.806;2023-03-01T14:52:06;7.60;99.90
36444;DHT22;24692;45.642;13.806;2023-03-01T14:57:14;7.50;99.90
36444;DHT22;24692;45.642;13.806;2023-03-01T14:59:41;7.50;99.90
36444;DHT22;24692;45.642;13.806;2023-03-01T15:02:26;7.40;99.90
36444;DHT22;24692;45.642;13.806;2023-03-01T15:04:55;7.40;99.90
36444;DHT22;24692;45.642;13.806;2023-03-01T15:07:29;7.40;99.90
36444;DHT22;24692;45.642;13.806;2023-03-01T15:09:57;7.20;99.90
36444;DHT22;24692;45.642;13.806;2023-03-01T15:12:34;7.30;99.90
36444;DHT22;24692;45.642;13.806;2023-03-01T15:15:00;7.40;99.90
36444;DHT22;24692;45.642;13.806;2023-03-01T15:19:55;7.60;99.90
36444;DHT22;24692;45.642;13.806;2023-03-01T15:22:21;7.40;99.90
36444;DHT22;24692;45.642;13.806;2023-03-01T15:24:49;7.50;99.90
36444;DHT22;24692;45.642;13.806;2023-03-01T15:27:19;7.30;99.90
36444;DHT22;24692;45.642;13.806;2023-03-01T15:32:30;7.40;99.90
36444;DHT22;24692;45.642;13.806;2023-03-01T15:34:58;7.60;99.90
36444;DHT22;24692;45.642;13.806;2023-03-01T15:37:53;7.50;99.90
36444;DHT22;24692;45.642;13.806;2023-03-01T15:40:27;7.40;99.90
36444;DHT22;24692;45.642;13.806;2023-03-01T15:43:05;7.30;99.90
36444;DHT22;24692;45.642;13.806;2023-03-01T15:45:32;7.40;99.90
36444;DHT22;24692;45.642;13.806;2023-03-01T15:48:13;7.40;99.90
36444;DHT22;24692;45.642;13.806;2023-03-01T15:50:40;7.50;99.90
36444;DHT22;24692;45.642;13.806;2023-03-01T15:53:10;7.50;99.90
36444;DHT22;24692;45.642;13.806;2023-03-01T15:55:37;7.70;99.90
36444;DHT22;24692;45.642;13.806;2023-03-01T15:58:15;7.80;99.90
36444;DHT22;24692;45.642;13.806;2023-03-01T16:00:41;7.80;99.90
36444;DHT22;24692;45.642;13.806;2023-03-01T16:03:08;7.70;99.90
36444;DHT22;24692;45.642;13.806;2023-03-01T16:05:36;7.70;99.90
36444;DHT22;24692;45.642;13.806;2023-03-01T16:08:02;7.70;99.90
36444;DHT22;24692;45.642;13.806;2023-03-01T16:10:28;7.70;99.90
36444;DHT22;24692;45.642;13.806;2023-03-01T16:12:54;7.80;99.90
36444;DHT22;24692;45.642;13.806;2023-03-01T16:15:22;7.80;99.90
36444;DHT22;24692;45.642;13.806;2023-03-01T16:17:49;7.80;99.90
36444;DHT22;24692;45.642;13.806;2023-03-01T16:20:15;7.80;99.90
36444;DHT22;24692;45.642;13.806;2023-03-01T16:22:42;7.60;99.90
36444;DHT22;24692;45.642;13.806;2023-03-01T16:25:10;7.60;99.90
36444;DHT22;24692;45.642;13.806;2023-03-01T16:27:36;7.60;99.90
36444;DHT22;24692;45.642;13.806;2023-03-01T16:30:02;7.80;99.90
36444;DHT22;24692;45.642;13.806;2023-03-01T16:32:28;7.90;99.90
36444;DHT22;24692;45.642;13.806;2023-03-01T16:34:53;7.90;99.90
36444;DHT22;24692;45.642;13.806;2023-03-01T16:37:19;7.90;99.90
36444;DHT22;24692;45.642;13.806;2023-03-01T16:39:45;7.60;99.90
36444;DHT22;24692;45.642;13.806;2023-03-01T16:42:10;7.60;99.90
36444;DHT22;24692;45.642;13.806;2023-03-01T16:44:36;7.60;99.90
36444;DHT22;24692;45.642;13.806;2023-03-01T16:47:01;7.70;99.90
36444;DHT22;24692;45.642;13.806;2023-03-01T16:49:27;7.40;99.90
36444;DHT22;24692;45.642;13.806;2023-03-01T16:51:56;7.50;99.90
36444;DHT22;24692;45.642;13.806;2023-03-01T16:54:21;7.50;99.90
36444;DHT22;24692;45.642;13.806;2023-03-01T16:56:47;7.50;99.90
36444;DHT22;24692;45.642;13.806;2023-03-01T16:59:13;7.40;99.90
36444;DHT22;24692;45.642;13.806;2023-03-01T17:01:38;7.40;99.90
36444;DHT22;24692;45.642;13.806;2023-03-01T17:04:06;7.50;99.90
36444;DHT22;24692;45.642;13.806;2023-03-01T17:06:35;7.50;99.90
36444;DHT22;24692;45.642;13.806;2023-03-01T17:09:00;7.40;99.90
36444;DHT22;24692;45.642;13.806;2023-03-01T17:11:26;7.50;99.90
36444;DHT22;24692;45.642;13.806;2023-03-01T17:13:52;7.50;99.90
36444;DHT22;24692;45.642;13.806;2023-03-01T17:16:19;7.40;99.90
36444;DHT22;24692;45.642;13.806;2023-03-01T17:18:45;7.40;99.90
36444;DHT22;24692;45.642;13.806;2023-03-01T17:21:12;7.20;99.90
36444;DHT22;24692;45.642;13.806;2023-03-01T17:23:39;7.30;99.90
36444;DHT22;24692;45.642;13.806;2023-03-01T17:26:06;7.20;99.90
36444;DHT22;24692;45.642;13.806;2023-03-01T17:28:33;7.30;99.90
36444;DHT22;24692;45.642;13.806;2023-03-01T17:31:00;7.40;99.90
36444;DHT22;24692;45.642;13.806;2023-03-01T17:33:27;7.60;99.90
36444;DHT22;24692;45.642;13.806;2023-03-01T17:35:55;7.50;99.90
36444;DHT22;24692;45.642;13.806;2023-03-01T17:38:21;7.30;99.90
36444;DHT22;24692;45.642;13.806;2023-03-01T17:40:47;7.30;99.90
36444;DHT22;24692;45.642;13.806;2023-03-01T17:43:14;7.30;99.90
36444;DHT22;24692;45.642;13.806;2023-03-01T17:45:41;7.30;99.90
36444;DHT22;24692;45.642;13.806;2023-03-01T17:48:09;7.40;99.90
36444;DHT22;24692;45.642;13.806;2023-03-01T17:50:37;7.20;99.90
36444;DHT22;24692;45.642;13.806;2023-03-01T17:53:03;7.10;99.90